sensor_id;sensor_type;location;lat;lon;timestamp;P1;durP1;ratioP1;P2;durP2;ratioP2
42832;SDS011;64089;51.478;5.692;2024-01-30T00:01:41;13.32;;;6.03;;
42832;SDS011;64089;51.478;5.692;2024-01-30T00:04:06;18.30;;;6.15;;
42832;SDS011;64089;51.478;5.692;2024-01-30T00:06:32;10.15;;;5.47;;
42832;SDS011;64089;51.478;5.692;2024-01-30T00:08:57;9.68;;;5.85;;
42832;SDS011;64089;51.478;5.692;2024-01-30T00:11:23;11.70;;;5.78;;
42832;SDS011;64089;51.478;5.692;2024-01-30T00:13:52;15.07;;;5.25;;
42832;SDS011;64089;51.478;5.692;2024-01-30T00:16:21;12.57;;;5.97;;
42832;SDS011;64089;51.478;5.692;2024-01-30T00:18:49;9.48;;;5.57;;
42832;SDS011;64089;51.478;5.692;2024-01-30T00:21:16;12.13;;;5.88;;
42832;SDS011;64089;51.478;5.692;2024-01-30T00:23:42;11.77;;;6.10;;
42832;SDS011;64089;51.478;5.692;2024-01-30T00:26:08;14.88;;;6.20;;
42832;SDS011;64089;51.478;5.692;2024-01-30T00:28:34;9.40;;;5.50;;
42832;SDS011;64089;51.478;5.692;2024-01-30T00:30:59;12.15;;;6.47;;
42832;SDS011;64089;51.478;5.692;2024-01-30T00:33:25;15.07;;;6.75;;
42832;SDS011;64089;51.478;5.692;2024-01-30T00:35:51;10.93;;;5.32;;
42832;SDS011;64089;51.478;5.692;2024-01-30T00:38:16;11.57;;;6.18;;
42832;SDS011;64089;51.478;5.692;2024-01-30T00:40:42;13.57;;;7.20;;
42832;SDS011;64089;51.478;5.692;2024-01-30T00:43:08;9.63;;;5.28;;
42832;SDS011;64089;51.478;5.692;2024-01-30T00:45:33;11.05;;;6.63;;
42832;SDS011;64089;51.478;5.692;2024-01-30T00:47:59;18.50;;;6.25;;
42832;SDS011;64089;51.478;5.692;2024-01-30T00:50:25;11.50;;;6.43;;
42832;SDS011;64089;51.478;5.692;2024-01-30T00:52:50;10.98;;;5.97;;
42832;SDS011;64089;51.478;5.692;2024-01-30T00:55:16;10.65;;;5.90;;
42832;SDS011;64089;51.478;5.692;2024-01-30T00:57:42;12.10;;;6.10;;
42832;SDS011;64089;51.478;5.692;2024-01-30T01:00:07;14.50;;;6.95;;
42832;SDS011;64089;51.478;5.692;2024-01-30T01:02:37;19.05;;;7.45;;
42832;SDS011;64089;51.478;5.692;2024-01-30T01:05:04;15.75;;;7.43;;
42832;SDS011;64089;51.478;5.692;2024-01-30T01:07:30;12.20;;;6.22;;
42832;SDS011;64089;51.478;5.692;2024-01-30T01:09:55;15.93;;;7.00;;
42832;SDS011;64089;51.478;5.692;2024-01-30T01:12:21;10.98;;;5.07;;
42832;SDS011;64089;51.478;5.692;2024-01-30T01:14:47;12.57;;;5.63;;
42832;SDS011;64089;51.478;5.692;2024-01-30T01:17:12;13.25;;;6.45;;
42832;SDS011;64089;51.478;5.692;2024-01-30T01:19:38;13.98;;;6.68;;
42832;SDS011;64089;51.478;5.692;2024-01-30T01:22:03;12.13;;;5.75;;
42832;SDS011;64089;51.478;5.692;2024-01-30T01:24:30;16.08;;;7.30;;
42832;SDS011;64089;51.478;5.692;2024-01-30T01:26:57;13.85;;;7.50;;
42832;SDS011;64089;51.478;5.692;2024-01-30T01:29:24;15.35;;;6.75;;
42832;SDS011;64089;51.478;5.692;2024-01-30T01:31:56;13.05;;;7.00;;
42832;SDS011;64089;51.478;5.692;2024-01-30T01:34:22;14.23;;;6.43;;
42832;SDS011;64089;51.478;5.692;2024-01-30T01:36:51;15.60;;;6.63;;
42832;SDS011;64089;51.478;5.692;2024-01-30T01:39:20;13.57;;;6.38;;
42832;SDS011;64089;51.478;5.692;2024-01-30T01:41:46;17.60;;;7.32;;
42832;SDS011;64089;51.478;5.692;2024-01-30T01:44:13;14.63;;;6.97;;
42832;SDS011;64089;51.478;5.692;2024-01-30T01:46:38;12.02;;;6.50;;
42832;SDS011;64089;51.478;5.692;2024-01-30T01:49:04;15.38;;;7.80;;
42832;SDS011;64089;51.478;5.692;2024-01-30T01:51:31;13.93;;;6.40;;
42832;SDS011;64089;51.478;5.692;2024-01-30T01:53:59;12.82;;;6.63;;
42832;SDS011;64089;51.478;5.692;2024-01-30T01:56:28;11.75;;;6.53;;
42832;SDS011;64089;51.478;5.692;2024-01-30T01:58:55;13.93;;;7.00;;
42832;SDS011;64089;51.478;5.692;2024-01-30T02:01:32;11.10;;;6.20;;
42832;SDS011;64089;51.478;5.692;2024-01-30T02:03:59;14.35;;;6.63;;
42832;SDS011;64089;51.478;5.692;2024-01-30T02:06:25;11.38;;;6.43;;
42832;SDS011;64089;51.478;5.692;2024-01-30T02:08:51;13.10;;;6.65;;
42832;SDS011;64089;51.478;5.692;2024-01-30T02:11:16;12.02;;;6.82;;
42832;SDS011;64089;51.478;5.692;2024-01-30T02:13:43;11.60;;;6.75;;
42832;SDS011;64089;51.478;5.692;2024-01-30T02:16:08;10.15;;;6.53;;
42832;SDS011;64089;51.478;5.692;2024-01-30T02:18:35;12.43;;;6.45;;
42832;SDS011;64089;51.478;5.692;2024-01-30T02:21:04;14.63;;;6.15;;
42832;SDS011;64089;51.478;5.692;2024-01-30T02:23:30;11.75;;;6.28;;
42832;SDS011;64089;51.478;5.692;2024-01-30T02:25:58;10.85;;;6.07;;
42832;SDS011;64089;51.478;5.692;2024-01-30T02:28:24;12.95;;;6.30;;
42832;SDS011;64089;51.478;5.692;2024-01-30T02:30:49;15.38;;;5.72;;
42832;SDS011;64089;51.478;5.692;2024-01-30T02:33:18;11.80;;;5.82;;
42832;SDS011;64089;51.478;5.692;2024-01-30T02:35:44;12.90;;;6.00;;
42832;SDS011;64089;51.478;5.692;2024-01-30T02:38:09;9.95;;;5.38;;
42832;SDS011;64089;51.478;5.692;2024-01-30T02:40:35;15.70;;;6.55;;
42832;SDS011;64089;51.478;5.692;2024-01-30T02:43:01;11.43;;;5.63;;
42832;SDS011;64089;51.478;5.692;2024-01-30T02:45:27;10.90;;;6.20;;
42832;SDS011;64089;51.478;5.692;2024-01-30T02:47:53;11.52;;;5.75;;
42832;SDS011;64089;51.478;5.692;2024-01-30T02:50:19;12.20;;;6.40;;
42832;SDS011;64089;51.478;5.692;2024-01-30T02:52:44;12.40;;;6.03;;
42832;SDS011;64089;51.478;5.692;2024-01-30T02:55:10;12.65;;;5.78;;
42832;SDS011;64089;51.478;5.692;2024-01-30T02:57:37;10.05;;;5.40;;
42832;SDS011;64089;51.478;5.692;2024-01-30T03:00:06;19.00;;;6.75;;
42832;SDS011;64089;51.478;5.692;2024-01-30T03:02:34;12.88;;;7.00;;
42832;SDS011;64089;51.478;5.692;2024-01-30T03:05:00;14.25;;;6.20;;
42832;SDS011;64089;51.478;5.692;2024-01-30T03:07:25;14.70;;;7.05;;
42832;SDS011;64089;51.478;5.692;2024-01-30T03:09:51;11.00;;;6.22;;
42832;SDS011;64089;51.478;5.692;2024-01-30T03:12:17;12.65;;;6.35;;
42832;SDS011;64089;51.478;5.692;2024-01-30T03:14:43;15.23;;;5.75;;
42832;SDS011;64089;51.478;5.692;2024-01-30T03:17:08;11.63;;;6.85;;
42832;SDS011;64089;51.478;5.692;2024-01-30T03:19:34;11.75;;;6.40;;
42832;SDS011;64089;51.478;5.692;2024-01-30T03:21:59;11.18;;;6.30;;
42832;SDS011;64089;51.478;5.692;2024-01-30T03:24:25;20.23;;;6.97;;
42832;SDS011;64089;51.478;5.692;2024-01-30T03:26:51;12.73;;;6.50;;
42832;SDS011;64089;51.478;5.692;2024-01-30T03:29:17;10.00;;;5.97;;
42832;SDS011;64089;51.478;5.692;2024-01-30T03:31:42;15.00;;;6.68;;
42832;SDS011;64089;51.478;5.692;2024-01-30T03:34:08;14.27;;;6.53;;
42832;SDS011;64089;51.478;5.692;2024-01-30T03:36:33;13.88;;;6.68;;
42832;SDS011;64089;51.478;5.692;2024-01-30T03:38:59;12.55;;;6.63;;
42832;SDS011;64089;51.478;5.692;2024-01-30T03:41:25;13.93;;;7.20;;
42832;SDS011;64089;51.478;5.692;2024-01-30T03:43:51;15.95;;;7.30;;
42832;SDS011;64089;51.478;5.692;2024-01-30T03:46:17;15.70;;;6.28;;
42832;SDS011;64089;51.478;5.692;2024-01-30T03:48:42;15.85;;;6.25;;
42832;SDS011;64089;51.478;5.692;2024-01-30T03:51:08;15.40;;;6.85;;
42832;SDS011;64089;51.478;5.692;2024-01-30T03:53:39;9.45;;;4.97;;
42832;SDS011;64089;51.478;5.692;2024-01-30T03:56:06;13.30;;;5.55;;
42832;SDS011;64089;51.478;5.692;2024-01-30T03:58:31;12.82;;;5.78;;
42832;SDS011;64089;51.478;5.692;2024-01-30T04:00:57;11.55;;;6.38;;
42832;SDS011;64089;51.478;5.692;2024-01-30T04:03:22;12.07;;;6.07;;
42832;SDS011;64089;51.478;5.692;2024-01-30T04:05:48;11.00;;;6.07;;
42832;SDS011;64089;51.478;5.692;2024-01-30T04:08:17;14.10;;;6.00;;
42832;SDS011;64089;51.478;5.692;2024-01-30T04:10:42;15.98;;;5.97;;
42832;SDS011;64089;51.478;5.692;2024-01-30T04:13:08;13.68;;;6.15;;
42832;SDS011;64089;51.478;5.692;2024-01-30T04:15:34;9.73;;;5.25;;
42832;SDS011;64089;51.478;5.692;2024-01-30T04:18:00;14.43;;;5.10;;
42832;SDS011;64089;51.478;5.692;2024-01-30T04:20:25;10.32;;;5.13;;
42832;SDS011;64089;51.478;5.692;2024-01-30T04:22:51;9.25;;;5.47;;
42832;SDS011;64089;51.478;5.692;2024-01-30T04:25:17;10.23;;;5.63;;
42832;SDS011;64089;51.478;5.692;2024-01-30T04:27:42;11.68;;;4.95;;
42832;SDS011;64089;51.478;5.692;2024-01-30T04:30:08;11.68;;;5.80;;
42832;SDS011;64089;51.478;5.692;2024-01-30T04:32:35;11.15;;;5.75;;
42832;SDS011;64089;51.478;5.692;2024-01-30T04:35:01;10.13;;;4.78;;
42832;SDS011;64089;51.478;5.692;2024-01-30T04:37:27;14.75;;;6.20;;
42832;SDS011;64089;51.478;5.692;2024-01-30T04:39:52;9.32;;;4.95;;
42832;SDS011;64089;51.478;5.692;2024-01-30T04:42:18;8.10;;;4.72;;
42832;SDS011;64089;51.478;5.692;2024-01-30T04:44:44;9.32;;;5.22;;
42832;SDS011;64089;51.478;5.692;2024-01-30T04:47:09;11.77;;;4.78;;
42832;SDS011;64089;51.478;5.692;2024-01-30T04:49:37;14.18;;;4.95;;
42832;SDS011;64089;51.478;5.692;2024-01-30T04:52:04;8.90;;;4.32;;
42832;SDS011;64089;51.478;5.692;2024-01-30T04:54:30;11.13;;;5.18;;
42832;SDS011;64089;51.478;5.692;2024-01-30T04:56:56;13.13;;;5.30;;
42832;SDS011;64089;51.478;5.692;2024-01-30T04:59:22;8.25;;;5.13;;
42832;SDS011;64089;51.478;5.692;2024-01-30T05:01:47;9.38;;;4.65;;
42832;SDS011;64089;51.478;5.692;2024-01-30T05:04:13;9.98;;;4.93;;
42832;SDS011;64089;51.478;5.692;2024-01-30T05:06:39;7.68;;;4.63;;
42832;SDS011;64089;51.478;5.692;2024-01-30T05:09:04;10.20;;;5.43;;
42832;SDS011;64089;51.478;5.692;2024-01-30T05:11:30;7.00;;;4.18;;
42832;SDS011;64089;51.478;5.692;2024-01-30T05:13:56;11.65;;;4.95;;
42832;SDS011;64089;51.478;5.692;2024-01-30T05:16:21;9.73;;;5.20;;
42832;SDS011;64089;51.478;5.692;2024-01-30T05:18:47;10.82;;;5.10;;
42832;SDS011;64089;51.478;5.692;2024-01-30T05:21:13;8.60;;;5.13;;
42832;SDS011;64089;51.478;5.692;2024-01-30T05:23:39;8.95;;;5.55;;
42832;SDS011;64089;51.478;5.692;2024-01-30T05:26:06;13.48;;;4.93;;
42832;SDS011;64089;51.478;5.692;2024-01-30T05:28:33;9.93;;;5.05;;
42832;SDS011;64089;51.478;5.692;2024-01-30T05:30:58;6.75;;;4.63;;
42832;SDS011;64089;51.478;5.692;2024-01-30T05:33:24;8.88;;;4.93;;
42832;SDS011;64089;51.478;5.692;2024-01-30T05:35:53;9.10;;;5.32;;
42832;SDS011;64089;51.478;5.692;2024-01-30T05:38:19;9.20;;;5.35;;
42832;SDS011;64089;51.478;5.692;2024-01-30T05:40:45;11.25;;;4.88;;
42832;SDS011;64089;51.478;5.692;2024-01-30T05:43:11;8.82;;;5.18;;
42832;SDS011;64089;51.478;5.692;2024-01-30T05:45:37;11.32;;;5.18;;
42832;SDS011;64089;51.478;5.692;2024-01-30T05:48:02;8.13;;;4.10;;
42832;SDS011;64089;51.478;5.692;2024-01-30T05:50:29;13.02;;;4.90;;
42832;SDS011;64089;51.478;5.692;2024-01-30T05:52:54;8.43;;;4.35;;
42832;SDS011;64089;51.478;5.692;2024-01-30T05:55:20;11.15;;;4.45;;
42832;SDS011;64089;51.478;5.692;2024-01-30T05:57:45;7.85;;;4.10;;
42832;SDS011;64089;51.478;5.692;2024-01-30T06:00:11;7.38;;;3.85;;
42832;SDS011;64089;51.478;5.692;2024-01-30T06:02:37;9.63;;;4.30;;
42832;SDS011;64089;51.478;5.692;2024-01-30T06:05:03;8.25;;;4.10;;
42832;SDS011;64089;51.478;5.692;2024-01-30T06:07:29;10.52;;;4.78;;
42832;SDS011;64089;51.478;5.692;2024-01-30T06:09:55;10.25;;;4.38;;
42832;SDS011;64089;51.478;5.692;2024-01-30T06:12:20;11.52;;;4.95;;
42832;SDS011;64089;51.478;5.692;2024-01-30T06:14:46;10.52;;;4.45;;
42832;SDS011;64089;51.478;5.692;2024-01-30T06:17:12;8.75;;;4.72;;
42832;SDS011;64089;51.478;5.692;2024-01-30T06:19:38;8.77;;;4.28;;
42832;SDS011;64089;51.478;5.692;2024-01-30T06:22:04;7.22;;;4.22;;
42832;SDS011;64089;51.478;5.692;2024-01-30T06:24:30;10.80;;;4.63;;
42832;SDS011;64089;51.478;5.692;2024-01-30T06:26:55;11.80;;;4.82;;
42832;SDS011;64089;51.478;5.692;2024-01-30T06:29:21;9.45;;;5.18;;
42832;SDS011;64089;51.478;5.692;2024-01-30T06:31:47;8.45;;;4.20;;
42832;SDS011;64089;51.478;5.692;2024-01-30T06:34:12;9.93;;;4.97;;
42832;SDS011;64089;51.478;5.692;2024-01-30T06:36:38;8.02;;;3.95;;
42832;SDS011;64089;51.478;5.692;2024-01-30T06:39:04;9.88;;;4.38;;
42832;SDS011;64089;51.478;5.692;2024-01-30T06:41:30;8.20;;;4.50;;
42832;SDS011;64089;51.478;5.692;2024-01-30T06:43:56;9.82;;;4.45;;
42832;SDS011;64089;51.478;5.692;2024-01-30T06:46:22;6.75;;;3.65;;
42832;SDS011;64089;51.478;5.692;2024-01-30T06:48:47;8.40;;;4.53;;
42832;SDS011;64089;51.478;5.692;2024-01-30T06:51:13;7.35;;;3.60;;
42832;SDS011;64089;51.478;5.692;2024-01-30T06:53:38;7.22;;;4.15;;
42832;SDS011;64089;51.478;5.692;2024-01-30T06:56:04;8.88;;;4.05;;
42832;SDS011;64089;51.478;5.692;2024-01-30T06:58:30;9.15;;;4.55;;
42832;SDS011;64089;51.478;5.692;2024-01-30T07:00:56;6.97;;;3.90;;
42832;SDS011;64089;51.478;5.692;2024-01-30T07:03:21;7.10;;;4.35;;
42832;SDS011;64089;51.478;5.692;2024-01-30T07:05:47;6.70;;;4.03;;
42832;SDS011;64089;51.478;5.692;2024-01-30T07:08:14;9.95;;;4.10;;
42832;SDS011;64089;51.478;5.692;2024-01-30T07:10:42;12.45;;;4.53;;
42832;SDS011;64089;51.478;5.692;2024-01-30T07:13:11;10.27;;;4.35;;
42832;SDS011;64089;51.478;5.692;2024-01-30T07:15:36;12.23;;;3.60;;
42832;SDS011;64089;51.478;5.692;2024-01-30T07:18:03;8.82;;;4.45;;
42832;SDS011;64089;51.478;5.692;2024-01-30T07:20:29;7.38;;;3.28;;
42832;SDS011;64089;51.478;5.692;2024-01-30T07:22:56;6.45;;;3.53;;
42832;SDS011;64089;51.478;5.692;2024-01-30T07:25:25;10.10;;;3.45;;
42832;SDS011;64089;51.478;5.692;2024-01-30T07:27:55;8.82;;;3.85;;
42832;SDS011;64089;51.478;5.692;2024-01-30T07:30:21;7.43;;;4.40;;
42832;SDS011;64089;51.478;5.692;2024-01-30T07:32:48;8.13;;;4.18;;
42832;SDS011;64089;51.478;5.692;2024-01-30T07:35:13;11.23;;;4.72;;
42832;SDS011;64089;51.478;5.692;2024-01-30T07:37:42;6.55;;;3.75;;
42832;SDS011;64089;51.478;5.692;2024-01-30T07:40:07;5.22;;;2.97;;
42832;SDS011;64089;51.478;5.692;2024-01-30T07:42:33;7.00;;;3.72;;
42832;SDS011;64089;51.478;5.692;2024-01-30T07:45:00;6.50;;;3.67;;
42832;SDS011;64089;51.478;5.692;2024-01-30T07:47:26;8.95;;;3.90;;
42832;SDS011;64089;51.478;5.692;2024-01-30T07:49:51;5.18;;;3.00;;
42832;SDS011;64089;51.478;5.692;2024-01-30T07:52:17;5.65;;;3.30;;
42832;SDS011;64089;51.478;5.692;2024-01-30T07:54:50;8.18;;;3.70;;
42832;SDS011;64089;51.478;5.692;2024-01-30T07:57:16;6.53;;;3.90;;
42832;SDS011;64089;51.478;5.692;2024-01-30T07:59:43;13.15;;;3.72;;
42832;SDS011;64089;51.478;5.692;2024-01-30T08:02:09;5.03;;;3.45;;
42832;SDS011;64089;51.478;5.692;2024-01-30T08:04:35;6.78;;;4.03;;
42832;SDS011;64089;51.478;5.692;2024-01-30T08:07:01;6.05;;;3.75;;
42832;SDS011;64089;51.478;5.692;2024-01-30T08:09:27;5.68;;;3.50;;
42832;SDS011;64089;51.478;5.692;2024-01-30T08:11:52;5.90;;;3.72;;
42832;SDS011;64089;51.478;5.692;2024-01-30T08:14:18;9.13;;;4.07;;
42832;SDS011;64089;51.478;5.692;2024-01-30T08:16:44;7.65;;;3.53;;
42832;SDS011;64089;51.478;5.692;2024-01-30T08:19:09;5.93;;;3.25;;
42832;SDS011;64089;51.478;5.692;2024-01-30T08:21:35;8.05;;;3.58;;
42832;SDS011;64089;51.478;5.692;2024-01-30T08:24:04;5.65;;;3.00;;
42832;SDS011;64089;51.478;5.692;2024-01-30T08:26:33;9.95;;;3.83;;
42832;SDS011;64089;51.478;5.692;2024-01-30T08:29:00;4.40;;;2.53;;
42832;SDS011;64089;51.478;5.692;2024-01-30T08:31:26;6.78;;;3.80;;
42832;SDS011;64089;51.478;5.692;2024-01-30T08:33:52;7.53;;;3.80;;
42832;SDS011;64089;51.478;5.692;2024-01-30T08:36:18;7.18;;;3.92;;
42832;SDS011;64089;51.478;5.692;2024-01-30T08:38:44;9.98;;;4.65;;
42832;SDS011;64089;51.478;5.692;2024-01-30T08:41:10;8.15;;;4.60;;
42832;SDS011;64089;51.478;5.692;2024-01-30T08:43:35;8.63;;;4.45;;
42832;SDS011;64089;51.478;5.692;2024-01-30T08:46:01;7.32;;;4.45;;
42832;SDS011;64089;51.478;5.692;2024-01-30T08:48:27;8.25;;;4.70;;
42832;SDS011;64089;51.478;5.692;2024-01-30T08:50:53;7.05;;;3.55;;
42832;SDS011;64089;51.478;5.692;2024-01-30T08:53:19;8.38;;;3.70;;
42832;SDS011;64089;51.478;5.692;2024-01-30T08:55:44;17.35;;;5.03;;
42832;SDS011;64089;51.478;5.692;2024-01-30T08:58:10;9.23;;;3.97;;
42832;SDS011;64089;51.478;5.692;2024-01-30T09:00:36;6.75;;;4.10;;
42832;SDS011;64089;51.478;5.692;2024-01-30T09:03:01;7.55;;;3.83;;
42832;SDS011;64089;51.478;5.692;2024-01-30T09:05:28;7.80;;;3.45;;
42832;SDS011;64089;51.478;5.692;2024-01-30T09:07:53;6.55;;;3.60;;
42832;SDS011;64089;51.478;5.692;2024-01-30T09:10:19;10.93;;;3.95;;
42832;SDS011;64089;51.478;5.692;2024-01-30T09:12:45;8.27;;;3.70;;
42832;SDS011;64089;51.478;5.692;2024-01-30T09:15:11;10.75;;;3.53;;
42832;SDS011;64089;51.478;5.692;2024-01-30T09:17:37;9.65;;;3.80;;
42832;SDS011;64089;51.478;5.692;2024-01-30T09:20:02;8.02;;;3.97;;
42832;SDS011;64089;51.478;5.692;2024-01-30T09:22:28;8.55;;;3.97;;
42832;SDS011;64089;51.478;5.692;2024-01-30T09:24:54;6.97;;;4.30;;
42832;SDS011;64089;51.478;5.692;2024-01-30T09:27:20;6.68;;;3.42;;
42832;SDS011;64089;51.478;5.692;2024-01-30T09:29:45;7.15;;;3.92;;
42832;SDS011;64089;51.478;5.692;2024-01-30T09:32:11;16.23;;;5.13;;
42832;SDS011;64089;51.478;5.692;2024-01-30T09:34:36;5.28;;;3.10;;
42832;SDS011;64089;51.478;5.692;2024-01-30T09:37:02;8.15;;;3.92;;
42832;SDS011;64089;51.478;5.692;2024-01-30T09:39:28;10.70;;;3.40;;
42832;SDS011;64089;51.478;5.692;2024-01-30T09:42:05;8.13;;;4.28;;
42832;SDS011;64089;51.478;5.692;2024-01-30T09:44:45;5.95;;;3.83;;
42832;SDS011;64089;51.478;5.692;2024-01-30T09:47:15;14.38;;;5.25;;
42832;SDS011;64089;51.478;5.692;2024-01-30T09:49:42;35.35;;;17.77;;
42832;SDS011;64089;51.478;5.692;2024-01-30T09:52:08;31.35;;;13.80;;
42832;SDS011;64089;51.478;5.692;2024-01-30T09:54:34;37.88;;;18.98;;
42832;SDS011;64089;51.478;5.692;2024-01-30T09:57:01;15.68;;;7.68;;
42832;SDS011;64089;51.478;5.692;2024-01-30T09:59:26;7.75;;;3.85;;
42832;SDS011;64089;51.478;5.692;2024-01-30T10:01:52;6.93;;;3.95;;
42832;SDS011;64089;51.478;5.692;2024-01-30T10:04:17;8.15;;;3.65;;
42832;SDS011;64089;51.478;5.692;2024-01-30T10:06:43;11.52;;;3.72;;
42832;SDS011;64089;51.478;5.692;2024-01-30T10:09:09;7.97;;;4.13;;
42832;SDS011;64089;51.478;5.692;2024-01-30T10:11:35;6.90;;;3.92;;
42832;SDS011;64089;51.478;5.692;2024-01-30T10:14:01;6.22;;;3.63;;
42832;SDS011;64089;51.478;5.692;2024-01-30T10:16:27;9.15;;;3.75;;
42832;SDS011;64089;51.478;5.692;2024-01-30T10:18:53;7.70;;;3.92;;
42832;SDS011;64089;51.478;5.692;2024-01-30T10:21:19;7.40;;;4.00;;
42832;SDS011;64089;51.478;5.692;2024-01-30T10:23:44;7.03;;;3.25;;
42832;SDS011;64089;51.478;5.692;2024-01-30T10:26:10;13.57;;;3.50;;
42832;SDS011;64089;51.478;5.692;2024-01-30T10:28:35;7.80;;;4.15;;
42832;SDS011;64089;51.478;5.692;2024-01-30T10:31:01;4.65;;;3.00;;
42832;SDS011;64089;51.478;5.692;2024-01-30T10:33:30;11.20;;;3.97;;
42832;SDS011;64089;51.478;5.692;2024-01-30T10:36:05;9.32;;;3.88;;
42832;SDS011;64089;51.478;5.692;2024-01-30T10:38:32;10.68;;;3.80;;
42832;SDS011;64089;51.478;5.692;2024-01-30T10:40:58;7.28;;;3.50;;
42832;SDS011;64089;51.478;5.692;2024-01-30T10:43:30;6.10;;;3.22;;
42832;SDS011;64089;51.478;5.692;2024-01-30T10:45:59;14.32;;;3.35;;
42832;SDS011;64089;51.478;5.692;2024-01-30T10:48:35;8.48;;;4.43;;
42832;SDS011;64089;51.478;5.692;2024-01-30T10:51:07;6.07;;;3.47;;
42832;SDS011;64089;51.478;5.692;2024-01-30T10:53:34;10.63;;;3.92;;
42832;SDS011;64089;51.478;5.692;2024-01-30T10:56:01;6.60;;;3.55;;
42832;SDS011;64089;51.478;5.692;2024-01-30T10:58:28;11.32;;;3.40;;
42832;SDS011;64089;51.478;5.692;2024-01-30T11:00:54;7.80;;;4.50;;
42832;SDS011;64089;51.478;5.692;2024-01-30T11:03:20;9.48;;;3.90;;
42832;SDS011;64089;51.478;5.692;2024-01-30T11:05:49;10.18;;;3.83;;
42832;SDS011;64089;51.478;5.692;2024-01-30T11:08:26;9.75;;;3.60;;
42832;SDS011;64089;51.478;5.692;2024-01-30T11:10:58;6.63;;;3.88;;
42832;SDS011;64089;51.478;5.692;2024-01-30T11:13:27;6.10;;;3.70;;
42832;SDS011;64089;51.478;5.692;2024-01-30T11:16:02;8.55;;;4.07;;
42832;SDS011;64089;51.478;5.692;2024-01-30T11:18:29;6.15;;;4.03;;
42832;SDS011;64089;51.478;5.692;2024-01-30T11:20:56;6.38;;;3.45;;
42832;SDS011;64089;51.478;5.692;2024-01-30T11:23:27;7.93;;;3.83;;
42832;SDS011;64089;51.478;5.692;2024-01-30T11:25:53;7.32;;;3.92;;
42832;SDS011;64089;51.478;5.692;2024-01-30T11:28:20;11.10;;;3.92;;
42832;SDS011;64089;51.478;5.692;2024-01-30T11:30:47;8.73;;;3.58;;
42832;SDS011;64089;51.478;5.692;2024-01-30T11:33:15;11.48;;;4.13;;
42832;SDS011;64089;51.478;5.692;2024-01-30T11:35:52;7.47;;;3.85;;
42832;SDS011;64089;51.478;5.692;2024-01-30T11:38:18;10.45;;;3.47;;
42832;SDS011;64089;51.478;5.692;2024-01-30T11:40:44;10.88;;;3.58;;
42832;SDS011;64089;51.478;5.692;2024-01-30T11:43:10;12.38;;;4.70;;
42832;SDS011;64089;51.478;5.692;2024-01-30T11:45:37;5.72;;;3.33;;
42832;SDS011;64089;51.478;5.692;2024-01-30T11:48:03;6.40;;;3.83;;
42832;SDS011;64089;51.478;5.692;2024-01-30T11:50:32;8.43;;;3.92;;
42832;SDS011;64089;51.478;5.692;2024-01-30T11:52:59;8.60;;;3.55;;
42832;SDS011;64089;51.478;5.692;2024-01-30T11:55:25;6.70;;;3.22;;
42832;SDS011;64089;51.478;5.692;2024-01-30T11:57:51;8.50;;;3.35;;
42832;SDS011;64089;51.478;5.692;2024-01-30T12:00:20;9.00;;;4.07;;
42832;SDS011;64089;51.478;5.692;2024-01-30T12:02:52;8.90;;;3.67;;
42832;SDS011;64089;51.478;5.692;2024-01-30T12:05:23;8.27;;;4.13;;
42832;SDS011;64089;51.478;5.692;2024-01-30T12:07:49;9.32;;;3.85;;
42832;SDS011;64089;51.478;5.692;2024-01-30T12:10:18;11.82;;;3.83;;
42832;SDS011;64089;51.478;5.692;2024-01-30T12:12:45;7.32;;;2.60;;
42832;SDS011;64089;51.478;5.692;2024-01-30T12:15:13;4.53;;;2.60;;
42832;SDS011;64089;51.478;5.692;2024-01-30T12:17:40;6.38;;;3.15;;
42832;SDS011;64089;51.478;5.692;2024-01-30T12:20:07;5.38;;;2.72;;
42832;SDS011;64089;51.478;5.692;2024-01-30T12:22:37;5.35;;;3.00;;
42832;SDS011;64089;51.478;5.692;2024-01-30T12:25:09;8.35;;;2.63;;
42832;SDS011;64089;51.478;5.692;2024-01-30T12:27:37;11.43;;;3.08;;
42832;SDS011;64089;51.478;5.692;2024-01-30T12:30:10;6.65;;;2.83;;
42832;SDS011;64089;51.478;5.692;2024-01-30T12:32:37;7.40;;;2.30;;
42832;SDS011;64089;51.478;5.692;2024-01-30T12:35:11;5.50;;;2.00;;
42832;SDS011;64089;51.478;5.692;2024-01-30T12:37:38;7.78;;;2.95;;
42832;SDS011;64089;51.478;5.692;2024-01-30T12:40:04;5.95;;;2.55;;
42832;SDS011;64089;51.478;5.692;2024-01-30T12:42:34;3.28;;;2.15;;
42832;SDS011;64089;51.478;5.692;2024-01-30T12:45:00;6.82;;;3.10;;
42832;SDS011;64089;51.478;5.692;2024-01-30T12:47:27;6.07;;;3.25;;
42832;SDS011;64089;51.478;5.692;2024-01-30T12:49:52;6.60;;;2.75;;
42832;SDS011;64089;51.478;5.692;2024-01-30T12:52:19;11.13;;;2.95;;
42832;SDS011;64089;51.478;5.692;2024-01-30T12:54:46;7.15;;;3.55;;
42832;SDS011;64089;51.478;5.692;2024-01-30T12:57:12;7.03;;;2.88;;
42832;SDS011;64089;51.478;5.692;2024-01-30T12:59:38;5.88;;;2.60;;
42832;SDS011;64089;51.478;5.692;2024-01-30T13:02:04;12.32;;;2.75;;
42832;SDS011;64089;51.478;5.692;2024-01-30T13:04:30;6.57;;;2.28;;
42832;SDS011;64089;51.478;5.692;2024-01-30T13:06:56;3.92;;;2.30;;
42832;SDS011;64089;51.478;5.692;2024-01-30T13:09:23;9.98;;;2.03;;
42832;SDS011;64089;51.478;5.692;2024-01-30T13:11:49;5.57;;;1.90;;
42832;SDS011;64089;51.478;5.692;2024-01-30T13:14:18;4.55;;;1.27;;
42832;SDS011;64089;51.478;5.692;2024-01-30T13:16:44;2.35;;;0.90;;
42832;SDS011;64089;51.478;5.692;2024-01-30T13:19:10;6.65;;;0.90;;
42832;SDS011;64089;51.478;5.692;2024-01-30T13:21:35;1.17;;;0.80;;
42832;SDS011;64089;51.478;5.692;2024-01-30T13:24:01;4.00;;;0.85;;
42832;SDS011;64089;51.478;5.692;2024-01-30T13:26:27;0.70;;;0.50;;
42832;SDS011;64089;51.478;5.692;2024-01-30T13:28:53;1.10;;;0.38;;
42832;SDS011;64089;51.478;5.692;2024-01-30T13:31:18;1.10;;;0.70;;
42832;SDS011;64089;51.478;5.692;2024-01-30T13:33:44;0.50;;;0.30;;
42832;SDS011;64089;51.478;5.692;2024-01-30T13:36:10;1.35;;;0.55;;
42832;SDS011;64089;51.478;5.692;2024-01-30T13:38:37;0.30;;;0.30;;
42832;SDS011;64089;51.478;5.692;2024-01-30T13:41:04;6.53;;;0.63;;
42832;SDS011;64089;51.478;5.692;2024-01-30T13:43:30;1.25;;;0.65;;
42832;SDS011;64089;51.478;5.692;2024-01-30T13:45:55;1.05;;;0.60;;
42832;SDS011;64089;51.478;5.692;2024-01-30T13:48:21;1.63;;;0.47;;
42832;SDS011;64089;51.478;5.692;2024-01-30T13:50:46;1.95;;;0.47;;
42832;SDS011;64089;51.478;5.692;2024-01-30T13:53:12;0.82;;;0.57;;
42832;SDS011;64089;51.478;5.692;2024-01-30T13:55:38;4.97;;;0.70;;
42832;SDS011;64089;51.478;5.692;2024-01-30T13:58:04;0.60;;;0.47;;
42832;SDS011;64089;51.478;5.692;2024-01-30T14:00:30;2.70;;;1.08;;
42832;SDS011;64089;51.478;5.692;2024-01-30T14:02:56;2.10;;;0.57;;
42832;SDS011;64089;51.478;5.692;2024-01-30T14:05:23;1.23;;;0.80;;
42832;SDS011;64089;51.478;5.692;2024-01-30T14:07:50;1.80;;;0.77;;
42832;SDS011;64089;51.478;5.692;2024-01-30T14:10:17;1.33;;;0.60;;
42832;SDS011;64089;51.478;5.692;2024-01-30T14:12:43;3.40;;;1.13;;
42832;SDS011;64089;51.478;5.692;2024-01-30T14:15:09;1.83;;;0.43;;
42832;SDS011;64089;51.478;5.692;2024-01-30T14:17:35;1.33;;;0.50;;
42832;SDS011;64089;51.478;5.692;2024-01-30T14:20:02;3.55;;;1.60;;
42832;SDS011;64089;51.478;5.692;2024-01-30T14:22:31;2.78;;;0.60;;
42832;SDS011;64089;51.478;5.692;2024-01-30T14:24:58;1.63;;;0.70;;
42832;SDS011;64089;51.478;5.692;2024-01-30T14:27:24;2.25;;;0.70;;
42832;SDS011;64089;51.478;5.692;2024-01-30T14:29:49;1.05;;;0.75;;
42832;SDS011;64089;51.478;5.692;2024-01-30T14:32:16;0.43;;;0.43;;
42832;SDS011;64089;51.478;5.692;2024-01-30T14:34:41;2.40;;;0.88;;
42832;SDS011;64089;51.478;5.692;2024-01-30T14:37:07;2.97;;;0.73;;